Time;durP1;ratioP1;P1;durP2;ratioP2;P2;SDS_P1;SDS_P2;PMS_P1;PMS_P2;Temp;Humidity;BMP_temperature;BMP_pressure;BME280_temperature;BME280_humidity;BME280_pressure;Samples;Min_cycle;Max_cycle;Signal;HPM_P1;HPM_P2
2022/12/16 00:00:31;;;;;;;217.33;43.60;;;;;;;;;;5049448;28;20671;-53
2022/12/16 00:03:00;;;;;;;265.67;51.03;;;;;;;;;;5074970;28;20314;-52
2022/12/16 00:05:26;;;;;;;222.83;41.90;;;;;;;;;;5065772;28;20875;-52
2022/12/16 00:07:52;;;;;;;254.13;45.60;;;;;;;;;;5064384;28;20218;-51
2022/12/16 00:10:18;;;;;;;256.00;47.40;;;;;;;;;;5045555;28;20187;-52
2022/12/16 00:12:44;;;;;;;236.63;44.40;;;;;;;;;;5055203;28;20452;-53
2022/12/16 00:15:10;;;;;;;235.53;42.67;;;;;;;;;;5050853;28;20294;-52
2022/12/16 00:17:38;;;;;;;267.83;50.93;;;;;;;;;;5055402;28;20210;-52
2022/12/16 00:20:04;;;;;;;255.27;48.07;;;;;;;;;;5053345;28;20230;-52
2022/12/16 00:22:30;;;;;;;222.07;40.87;;;;;;;;;;5047633;28;20192;-52
2022/12/16 00:24:56;;;;;;;213.13;40.27;;;;;;;;;;5061615;28;20519;-51
2022/12/16 00:27:22;;;;;;;227.20;40.70;;;;;;;;;;5052020;28;20401;-52
2022/12/16 00:29:48;;;;;;;216.40;39.47;;;;;;;;;;5058241;28;20209;-52
2022/12/16 00:32:14;;;;;;;226.93;40.67;;;;;;;;;;5064843;28;20772;-52
2022/12/16 00:34:40;;;;;;;196.43;40.17;;;;;;;;;;5065244;28;20175;-52
2022/12/16 00:37:06;;;;;;;225.93;43.60;;;;;;;;;;5066062;28;20194;-52
2022/12/16 00:39:32;;;;;;;240.90;41.97;;;;;;;;;;5059990;28;20210;-52
2022/12/16 00:41:58;;;;;;;220.80;41.80;;;;;;;;;;5056977;28;20205;-51
2022/12/16 00:44:24;;;;;;;231.33;42.57;;;;;;;;;;5049694;28;20207;-52
2022/12/16 00:46:50;;;;;;;235.13;41.63;;;;;;;;;;5051514;28;20183;-52
2022/12/16 00:49:15;;;;;;;230.33;41.17;;;;;;;;;;5084659;28;20570;-51
2022/12/16 00:51:42;;;;;;;196.90;39.43;;;;;;;;;;5051544;28;20230;-52
2022/12/16 00:54:08;;;;;;;231.10;39.93;;;;;;;;;;5062449;28;20207;-52
2022/12/16 00:56:34;;;;;;;239.90;44.53;;;;;;;;;;5068185;28;20198;-52
2022/12/16 00:59:00;;;;;;;214.20;43.20;;;;;;;;;;5077423;28;20212;-52
2022/12/16 01:01:26;;;;;;;224.27;44.20;;;;;;;;;;5050656;28;20255;-51
2022/12/16 01:03:55;;;;;;;214.23;37.33;;;;;;;;;;5050960;28;20895;-51
2022/12/16 01:06:21;;;;;;;238.27;42.73;;;;;;;;;;5047511;28;20207;-51
2022/12/16 01:08:47;;;;;;;211.83;41.77;;;;;;;;;;5046549;28;20219;-51
2022/12/16 01:11:14;;;;;;;254.47;51.17;;;;;;;;;;5064935;28;20568;-51
2022/12/16 01:13:40;;;;;;;233.03;45.93;;;;;;;;;;5068334;28;20199;-52
2022/12/16 01:16:07;;;;;;;223.50;42.40;;;;;;;;;;5068031;28;20228;-51
2022/12/16 01:18:33;;;;;;;223.87;41.90;;;;;;;;;;5068245;28;20313;-51
2022/12/16 01:21:06;;;;;;;227.87;41.30;;;;;;;;;;5082805;28;20297;-52
2022/12/16 01:23:37;;;;;;;238.30;44.27;;;;;;;;;;5067579;28;20215;-52
2022/12/16 01:26:03;;;;;;;236.17;44.20;;;;;;;;;;5063579;28;20218;-52
2022/12/16 01:28:32;;;;;;;231.07;42.70;;;;;;;;;;5051437;28;20248;-52
2022/12/16 01:31:00;;;;;;;218.97;44.37;;;;;;;;;;5063539;28;20524;-53
2022/12/16 01:33:26;;;;;;;238.63;45.47;;;;;;;;;;5068195;28;20218;-52
2022/12/16 01:35:58;;;;;;;217.13;42.47;;;;;;;;;;5063713;28;20203;-52
2022/12/16 01:38:24;;;;;;;255.93;45.50;;;;;;;;;;5080610;28;20310;-53
2022/12/16 01:40:50;;;;;;;242.47;43.17;;;;;;;;;;5053708;28;20340;-53
2022/12/16 01:43:25;;;;;;;250.50;46.73;;;;;;;;;;5045531;28;20203;-52
2022/12/16 01:45:52;;;;;;;251.53;47.17;;;;;;;;;;5066370;28;20259;-52
2022/12/16 01:48:30;;;;;;;231.83;44.57;;;;;;;;;;5068328;28;21118;-52
2022/12/16 01:50:59;;;;;;;224.87;40.47;;;;;;;;;;5060409;28;20206;-52
2022/12/16 01:53:25;;;;;;;235.67;44.27;;;;;;;;;;5063207;28;20305;-51
2022/12/16 01:55:52;;;;;;;215.57;41.30;;;;;;;;;;5054134;28;20805;-52
2022/12/16 01:58:21;;;;;;;220.83;42.77;;;;;;;;;;5049345;28;20632;-53
2022/12/16 02:00:50;;;;;;;238.47;43.57;;;;;;;;;;5064530;28;20207;-52
2022/12/16 02:03:16;;;;;;;198.77;37.87;;;;;;;;;;5067359;28;20333;-52
2022/12/16 02:05:42;;;;;;;246.80;43.43;;;;;;;;;;5067474;28;20235;-56
2022/12/16 02:08:08;;;;;;;224.93;39.97;;;;;;;;;;5069132;28;20737;-54
2022/12/16 02:10:43;;;;;;;189.97;33.90;;;;;;;;;;5067048;28;20191;-53
2022/12/16 02:13:12;;;;;;;238.63;41.93;;;;;;;;;;5066413;28;20295;-54
2022/12/16 02:15:43;;;;;;;229.67;43.27;;;;;;;;;;5066882;28;20636;-54
2022/12/16 02:18:25;;;;;;;218.67;36.07;;;;;;;;;;5067718;28;20211;-54
2022/12/16 02:21:12;;;;;;;210.23;38.03;;;;;;;;;;5066012;28;20218;-54
2022/12/16 02:23:57;;;;;;;221.10;37.57;;;;;;;;;;5067351;28;20317;-54
2022/12/16 02:26:40;;;;;;;239.97;42.33;;;;;;;;;;5065009;28;20207;-52
2022/12/16 02:29:18;;;;;;;213.00;39.30;;;;;;;;;;5065811;28;20704;-52
2022/12/16 02:31:54;;;;;;;244.23;43.30;;;;;;;;;;5066846;28;20197;-52
2022/12/16 02:34:38;;;;;;;239.90;44.53;;;;;;;;;;5066234;28;20202;-52
2022/12/16 02:37:14;;;;;;;234.77;42.60;;;;;;;;;;5080711;28;20250;-52
2022/12/16 02:40:00;;;;;;;261.17;44.97;;;;;;;;;;5045750;28;20207;-52
2022/12/16 02:42:36;;;;;;;218.43;39.10;;;;;;;;;;5048308;28;20214;-52
2022/12/16 02:45:23;;;;;;;254.50;46.03;;;;;;;;;;5049494;28;20264;-51
2022/12/16 02:47:49;;;;;;;262.67;70.77;;;;;;;;;;5050555;28;20690;-52
2022/12/16 02:50:20;;;;;;;286.90;100.60;;;;;;;;;;5066653;28;20259;-52
2022/12/16 02:52:46;;;;;;;253.30;90.20;;;;;;;;;;5070529;28;20193;-53
2022/12/16 02:55:12;;;;;;;249.20;90.40;;;;;;;;;;5067016;28;20163;-53
2022/12/16 02:57:51;;;;;;;306.50;101.77;;;;;;;;;;5065660;28;20620;-53
2022/12/16 03:00:21;;;;;;;261.27;84.03;;;;;;;;;;5065856;28;20194;-52
2022/12/16 03:02:52;;;;;;;290.87;97.17;;;;;;;;;;5060930;28;20754;-52
2022/12/16 03:05:21;;;;;;;268.03;86.97;;;;;;;;;;5063368;28;20207;-52
2022/12/16 03:07:49;;;;;;;283.20;89.53;;;;;;;;;;5066333;28;20243;-51
2022/12/16 03:10:17;;;;;;;214.60;74.07;;;;;;;;;;5067292;28;20179;-52
2022/12/16 03:12:43;;;;;;;304.73;92.93;;;;;;;;;;5066008;28;20217;-52
2022/12/16 03:15:10;;;;;;;275.43;88.40;;;;;;;;;;5065790;28;20211;-52
2022/12/16 03:17:37;;;;;;;294.77;90.73;;;;;;;;;;5066494;28;20340;-54
2022/12/16 03:20:12;;;;;;;284.20;88.23;;;;;;;;;;5066116;28;20254;-52
2022/12/16 03:22:41;;;;;;;278.60;91.23;;;;;;;;;;5056346;28;20213;-51
2022/12/16 03:25:07;;;;;;;294.83;94.43;;;;;;;;;;5087446;28;20179;-51
2022/12/16 03:27:39;;;;;;;297.53;94.97;;;;;;;;;;5065611;28;20237;-51
2022/12/16 03:30:06;;;;;;;297.63;91.63;;;;;;;;;;5064624;28;20642;-52
2022/12/16 03:32:38;;;;;;;257.50;87.93;;;;;;;;;;5066258;28;20344;-52
2022/12/16 03:35:06;;;;;;;241.90;84.70;;;;;;;;;;5063076;28;20209;-54
2022/12/16 03:37:36;;;;;;;283.13;87.10;;;;;;;;;;5065453;28;20210;-52
2022/12/16 03:40:05;;;;;;;273.90;85.17;;;;;;;;;;5066094;28;20685;-52
2022/12/16 03:42:31;;;;;;;256.03;87.60;;;;;;;;;;5044087;28;20310;-52
2022/12/16 03:44:57;;;;;;;297.90;97.67;;;;;;;;;;5044692;28;20231;-52
2022/12/16 03:47:26;;;;;;;259.60;83.57;;;;;;;;;;5042891;28;20215;-52
2022/12/16 03:49:52;;;;;;;280.43;87.07;;;;;;;;;;5045040;28;20347;-52
2022/12/16 03:52:18;;;;;;;260.53;86.60;;;;;;;;;;5046790;28;20627;-52
2022/12/16 03:54:44;;;;;;;306.50;99.13;;;;;;;;;;5049836;28;20286;-52
2022/12/16 03:57:10;;;;;;;272.63;88.50;;;;;;;;;;5055261;28;20281;-53
2022/12/16 03:59:36;;;;;;;251.43;89.10;;;;;;;;;;5053585;28;20276;-53
2022/12/16 04:02:02;;;;;;;256.60;85.00;;;;;;;;;;5064705;28;20678;-53
2022/12/16 04:04:28;;;;;;;281.20;96.63;;;;;;;;;;5066707;28;20244;-53
2022/12/16 04:09:38;;;;;;;254.03;80.30;;;;;;;;;;5043780;28;20222;-52
2022/12/16 04:25:50;;;;;;;277.17;87.20;;;;;;;;;;5068280;28;20268;-53
2022/12/16 04:28:15;;;;;;;269.20;83.33;;;;;;;;;;5085782;28;20195;-53
2022/12/16 04:30:44;;;;;;;259.37;83.03;;;;;;;;;;5069853;28;20646;-54
